sensor_id;sensor_type;location;lat;lon;timestamp;pressure;altitude;pressure_sealevel;temperature;humidity
64230;BME280;50547;49.498;0.092;2024-03-23T00:54:02;1015.39;;;8.71;75.23
64230;BME280;50547;49.498;0.092;2024-03-23T00:56:31;1015.39;;;8.67;75.33
64230;BME280;50547;49.498;0.092;2024-03-23T00:59:01;1015.36;;;8.69;75.30
64230;BME280;50547;49.498;0.092;2024-03-23T01:01:29;1015.28;;;8.79;75.01
64230;BME280;50547;49.498;0.092;2024-03-23T01:03:59;1015.20;;;8.77;75.03
64230;BME280;50547;49.498;0.092;2024-03-23T01:06:28;1015.20;;;8.76;75.57
64230;BME280;50547;49.498;0.092;2024-03-23T01:08:57;1015.24;;;8.72;75.26
64230;BME280;50547;49.498;0.092;2024-03-23T01:11:27;1015.32;;;8.81;74.85
64230;BME280;50547;49.498;0.092;2024-03-23T01:13:56;1015.14;;;8.84;75.47
64230;BME280;50547;49.498;0.092;2024-03-23T01:16:25;1015.28;;;8.79;76.44
64230;BME280;50547;49.498;0.092;2024-03-23T01:18:54;1015.18;;;8.72;76.53
64230;BME280;50547;49.498;0.092;2024-03-23T01:21:23;1015.24;;;8.74;75.82
64230;BME280;50547;49.498;0.092;2024-03-23T01:23:52;1015.14;;;8.85;75.24
64230;BME280;50547;49.498;0.092;2024-03-23T01:26:21;1015.12;;;8.86;75.41
64230;BME280;50547;49.498;0.092;2024-03-23T01:28:50;1015.04;;;8.92;76.13
64230;BME280;50547;49.498;0.092;2024-03-23T01:31:20;1015.02;;;8.88;75.96
64230;BME280;50547;49.498;0.092;2024-03-23T01:33:49;1015.08;;;8.90;75.99
64230;BME280;50547;49.498;0.092;2024-03-23T01:36:18;1014.94;;;8.84;75.35
64230;BME280;50547;49.498;0.092;2024-03-23T01:38:47;1015.00;;;8.82;75.32
64230;BME280;50547;49.498;0.092;2024-03-23T01:41:16;1015.06;;;8.86;75.82
64230;BME280;50547;49.498;0.092;2024-03-23T01:43:45;1015.06;;;8.88;75.72
64230;BME280;50547;49.498;0.092;2024-03-23T01:46:14;1014.96;;;8.82;75.12
64230;BME280;50547;49.498;0.092;2024-03-23T01:48:43;1015.00;;;8.76;75.36
64230;BME280;50547;49.498;0.092;2024-03-23T01:51:13;1015.06;;;8.80;74.92
64230;BME280;50547;49.498;0.092;2024-03-23T01:53:42;1015.04;;;8.54;77.59
64230;BME280;50547;49.498;0.092;2024-03-23T01:56:11;1015.32;;;7.64;80.88
64230;BME280;50547;49.498;0.092;2024-03-23T01:58:40;1015.39;;;7.38;79.83
64230;BME280;50547;49.498;0.092;2024-03-23T02:01:09;1015.18;;;7.19;78.82
64230;BME280;50547;49.498;0.092;2024-03-23T02:03:38;1015.22;;;7.16;79.32
64230;BME280;50547;49.498;0.092;2024-03-23T02:06:08;1015.20;;;7.08;79.73
64230;BME280;50547;49.498;0.092;2024-03-23T02:08:37;1015.10;;;7.13;79.05
64230;BME280;50547;49.498;0.092;2024-03-23T02:11:06;1015.06;;;7.33;78.69
64230;BME280;50547;49.498;0.092;2024-03-23T02:13:35;1015.04;;;7.20;79.01
64230;BME280;50547;49.498;0.092;2024-03-23T02:16:05;1015.00;;;7.51;78.22
64230;BME280;50547;49.498;0.092;2024-03-23T02:18:34;1015.00;;;7.51;78.41
64230;BME280;50547;49.498;0.092;2024-03-23T02:21:04;1015.00;;;7.76;77.38
64230;BME280;50547;49.498;0.092;2024-03-23T02:23:33;1014.94;;;7.87;77.48
64230;BME280;50547;49.498;0.092;2024-03-23T02:26:02;1014.98;;;8.04;77.92
64230;BME280;50547;49.498;0.092;2024-03-23T02:28:31;1014.90;;;8.08;78.36
64230;BME280;50547;49.498;0.092;2024-03-23T02:31:01;1014.87;;;8.13;78.07
64230;BME280;50547;49.498;0.092;2024-03-23T02:33:30;1014.94;;;8.22;77.76
64230;BME280;50547;49.498;0.092;2024-03-23T02:35:59;1014.85;;;8.32;78.27
64230;BME280;50547;49.498;0.092;2024-03-23T02:38:28;1014.77;;;8.33;79.78
64230;BME280;50547;49.498;0.092;2024-03-23T02:41:02;1014.90;;;8.44;79.22
64230;BME280;50547;49.498;0.092;2024-03-23T02:43:31;1014.81;;;8.53;79.76
64230;BME280;50547;49.498;0.092;2024-03-23T02:46:00;1014.90;;;8.57;79.95
64230;BME280;50547;49.498;0.092;2024-03-23T02:48:29;1014.87;;;8.51;79.87
64230;BME280;50547;49.498;0.092;2024-03-23T02:50:58;1014.98;;;8.56;79.41
64230;BME280;50547;49.498;0.092;2024-03-23T02:53:27;1014.94;;;8.51;79.49
64230;BME280;50547;49.498;0.092;2024-03-23T02:55:57;1014.87;;;8.53;78.58
64230;BME280;50547;49.498;0.092;2024-03-23T02:58:26;1014.94;;;8.53;78.54
64230;BME280;50547;49.498;0.092;2024-03-23T03:00:55;1014.90;;;8.61;79.06
64230;BME280;50547;49.498;0.092;2024-03-23T03:03:24;1014.79;;;8.57;78.33
64230;BME280;50547;49.498;0.092;2024-03-23T03:05:55;1014.94;;;8.48;77.68
64230;BME280;50547;49.498;0.092;2024-03-23T03:08:24;1014.94;;;8.18;77.72
64230;BME280;50547;49.498;0.092;2024-03-23T03:10:53;1015.08;;;7.80;80.35
64230;BME280;50547;49.498;0.092;2024-03-23T03:13:22;1015.02;;;7.49;83.07
64230;BME280;50547;49.498;0.092;2024-03-23T03:15:52;1015.00;;;7.62;81.28
64230;BME280;50547;49.498;0.092;2024-03-23T03:18:21;1014.92;;;7.91;79.71
64230;BME280;50547;49.498;0.092;2024-03-23T03:20:54;1014.90;;;8.02;80.24
64230;BME280;50547;49.498;0.092;2024-03-23T03:23:23;1014.89;;;8.14;77.98
64230;BME280;50547;49.498;0.092;2024-03-23T03:25:52;1014.90;;;8.09;77.96
64230;BME280;50547;49.498;0.092;2024-03-23T03:28:21;1014.85;;;8.21;76.98
64230;BME280;50547;49.498;0.092;2024-03-23T03:30:50;1014.90;;;8.18;78.19
64230;BME280;50547;49.498;0.092;2024-03-23T03:33:19;1014.83;;;8.20;77.61
64230;BME280;50547;49.498;0.092;2024-03-23T03:35:48;1014.81;;;8.12;77.04
64230;BME280;50547;49.498;0.092;2024-03-23T03:38:18;1014.77;;;8.28;76.54
64230;BME280;50547;49.498;0.092;2024-03-23T03:40:47;1014.98;;;8.27;76.20
64230;BME280;50547;49.498;0.092;2024-03-23T03:43:16;1014.92;;;8.32;75.31
64230;BME280;50547;49.498;0.092;2024-03-23T03:45:51;1014.92;;;8.27;73.61
64230;BME280;50547;49.498;0.092;2024-03-23T03:48:21;1014.85;;;8.25;74.57
64230;BME280;50547;49.498;0.092;2024-03-23T03:50:50;1014.85;;;8.19;74.28
64230;BME280;50547;49.498;0.092;2024-03-23T03:53:19;1014.89;;;8.21;74.60
64230;BME280;50547;49.498;0.092;2024-03-23T03:55:48;1014.92;;;8.22;75.11
64230;BME280;50547;49.498;0.092;2024-03-23T03:58:17;1014.75;;;8.31;75.61
64230;BME280;50547;49.498;0.092;2024-03-23T04:00:46;1014.87;;;8.25;75.73
64230;BME280;50547;49.498;0.092;2024-03-23T04:03:15;1014.77;;;8.26;76.41
64230;BME280;50547;49.498;0.092;2024-03-23T04:05:50;1014.89;;;8.28;76.86
64230;BME280;50547;49.498;0.092;2024-03-23T04:08:19;1014.92;;;8.25;76.24
64230;BME280;50547;49.498;0.092;2024-03-23T04:10:49;1014.98;;;8.31;76.32
64230;BME280;50547;49.498;0.092;2024-03-23T04:13:18;1014.85;;;8.30;76.43
64230;BME280;50547;49.498;0.092;2024-03-23T04:15:47;1015.00;;;8.34;76.37
64230;BME280;50547;49.498;0.092;2024-03-23T04:18:16;1015.00;;;8.17;77.04
64230;BME280;50547;49.498;0.092;2024-03-23T04:20:45;1014.98;;;8.20;76.34
64230;BME280;50547;49.498;0.092;2024-03-23T04:23:14;1014.96;;;8.19;74.32
64230;BME280;50547;49.498;0.092;2024-03-23T04:25:43;1014.90;;;8.23;73.71
64230;BME280;50547;49.498;0.092;2024-03-23T04:28:12;1014.92;;;8.29;74.64
64230;BME280;50547;49.498;0.092;2024-03-23T04:30:41;1014.87;;;8.27;75.08
64230;BME280;50547;49.498;0.092;2024-03-23T04:33:10;1015.18;;;8.31;75.59
64230;BME280;50547;49.498;0.092;2024-03-23T04:35:39;1014.90;;;8.24;75.63
64230;BME280;50547;49.498;0.092;2024-03-23T04:38:08;1015.00;;;8.23;76.25
64230;BME280;50547;49.498;0.092;2024-03-23T04:40:37;1014.94;;;8.15;76.00
64230;BME280;50547;49.498;0.092;2024-03-23T04:43:06;1014.96;;;8.13;76.06
64230;BME280;50547;49.498;0.092;2024-03-23T04:45:35;1014.94;;;8.25;76.43
64230;BME280;50547;49.498;0.092;2024-03-23T04:48:05;1014.98;;;8.09;75.51
64230;BME280;50547;49.498;0.092;2024-03-23T04:50:34;1015.02;;;8.11;75.11
64230;BME280;50547;49.498;0.092;2024-03-23T04:53:04;1015.00;;;8.12;74.17
64230;BME280;50547;49.498;0.092;2024-03-23T04:55:33;1014.90;;;8.12;73.60
64230;BME280;50547;49.498;0.092;2024-03-23T04:58:02;1015.00;;;8.11;73.71
64230;BME280;50547;49.498;0.092;2024-03-23T05:00:31;1015.00;;;8.05;75.47
64230;BME280;50547;49.498;0.092;2024-03-23T05:03:00;1014.98;;;8.13;75.84
64230;BME280;50547;49.498;0.092;2024-03-23T05:05:29;1015.18;;;8.06;75.30
64230;BME280;50547;49.498;0.092;2024-03-23T05:07:58;1015.04;;;8.10;75.44
64230;BME280;50547;49.498;0.092;2024-03-23T05:10:27;1015.08;;;8.21;76.42
64230;BME280;50547;49.498;0.092;2024-03-23T05:12:56;1015.06;;;8.24;75.69
64230;BME280;50547;49.498;0.092;2024-03-23T05:15:25;1015.02;;;8.10;74.17
64230;BME280;50547;49.498;0.092;2024-03-23T05:17:54;1014.92;;;8.09;73.46
64230;BME280;50547;49.498;0.092;2024-03-23T05:20:23;1015.12;;;8.19;74.36
64230;BME280;50547;49.498;0.092;2024-03-23T05:22:54;1015.18;;;8.06;73.98
64230;BME280;50547;49.498;0.092;2024-03-23T05:25:23;1015.26;;;8.07;73.70
64230;BME280;50547;49.498;0.092;2024-03-23T05:27:52;1014.98;;;8.00;72.31
64230;BME280;50547;49.498;0.092;2024-03-23T05:30:22;1015.14;;;8.13;73.22
64230;BME280;50547;49.498;0.092;2024-03-23T05:32:51;1015.14;;;8.08;73.52
64230;BME280;50547;49.498;0.092;2024-03-23T05:35:20;1015.18;;;8.01;74.32
64230;BME280;50547;49.498;0.092;2024-03-23T05:37:49;1015.18;;;8.00;75.42
64230;BME280;50547;49.498;0.092;2024-03-23T05:40:18;1015.06;;;7.91;74.07
64230;BME280;50547;49.498;0.092;2024-03-23T05:42:47;1015.16;;;7.89;73.30
64230;BME280;50547;49.498;0.092;2024-03-23T05:45:16;1015.22;;;8.00;73.75
64230;BME280;50547;49.498;0.092;2024-03-23T05:47:45;1015.10;;;7.95;73.23
64230;BME280;50547;49.498;0.092;2024-03-23T05:50:14;1015.26;;;8.01;73.26
64230;BME280;50547;49.498;0.092;2024-03-23T05:52:43;1015.08;;;8.09;74.31
64230;BME280;50547;49.498;0.092;2024-03-23T05:55:12;1014.98;;;8.07;74.16
64230;BME280;50547;49.498;0.092;2024-03-23T05:57:41;1015.22;;;8.10;74.15
64230;BME280;50547;49.498;0.092;2024-03-23T06:00:11;1015.28;;;7.99;73.68
64230;BME280;50547;49.498;0.092;2024-03-23T06:02:40;1015.18;;;7.95;73.64
64230;BME280;50547;49.498;0.092;2024-03-23T06:05:09;1015.28;;;8.01;73.54
64230;BME280;50547;49.498;0.092;2024-03-23T06:07:39;1015.14;;;8.06;73.19
64230;BME280;50547;49.498;0.092;2024-03-23T06:10:08;1015.26;;;8.02;72.19
64230;BME280;50547;49.498;0.092;2024-03-23T06:12:37;1015.30;;;8.03;72.18
64230;BME280;50547;49.498;0.092;2024-03-23T06:15:08;1015.36;;;8.12;73.32
64230;BME280;50547;49.498;0.092;2024-03-23T06:17:37;1015.26;;;8.17;74.63
64230;BME280;50547;49.498;0.092;2024-03-23T06:20:06;1015.20;;;8.30;74.99
64230;BME280;50547;49.498;0.092;2024-03-23T06:22:36;1014.96;;;8.10;74.16
64230;BME280;50547;49.498;0.092;2024-03-23T06:25:05;1015.14;;;8.30;75.42
64230;BME280;50547;49.498;0.092;2024-03-23T06:27:35;1015.14;;;8.30;75.30
64230;BME280;50547;49.498;0.092;2024-03-23T06:30:05;1015.32;;;8.31;76.21
64230;BME280;50547;49.498;0.092;2024-03-23T06:32:34;1015.24;;;8.29;75.37
64230;BME280;50547;49.498;0.092;2024-03-23T06:35:03;1015.30;;;8.20;74.52
64230;BME280;50547;49.498;0.092;2024-03-23T06:37:33;1014.85;;;8.09;72.96
64230;BME280;50547;49.498;0.092;2024-03-23T06:40:02;1015.37;;;8.30;73.20
64230;BME280;50547;49.498;0.092;2024-03-23T06:42:31;1015.30;;;8.04;76.24
64230;BME280;50547;49.498;0.092;2024-03-23T06:45:00;1015.32;;;8.00;78.04
64230;BME280;50547;49.498;0.092;2024-03-23T06:47:29;1015.26;;;8.18;76.73
64230;BME280;50547;49.498;0.092;2024-03-23T06:49:59;1015.12;;;8.31;75.80
64230;BME280;50547;49.498;0.092;2024-03-23T06:52:29;1014.96;;;8.27;77.01
64230;BME280;50547;49.498;0.092;2024-03-23T06:54:58;1015.43;;;7.18;85.16
64230;BME280;50547;49.498;0.092;2024-03-23T06:57:27;1015.20;;;6.64;85.92
64230;BME280;50547;49.498;0.092;2024-03-23T06:59:56;1015.43;;;6.90;84.44
64230;BME280;50547;49.498;0.092;2024-03-23T07:02:25;1015.36;;;7.32;81.86
64230;BME280;50547;49.498;0.092;2024-03-23T07:04:54;1015.34;;;7.23;80.00
64230;BME280;50547;49.498;0.092;2024-03-23T07:07:23;1015.36;;;7.39;79.59
64230;BME280;50547;49.498;0.092;2024-03-23T07:09:52;1015.41;;;7.63;78.57
64230;BME280;50547;49.498;0.092;2024-03-23T07:12:22;1015.41;;;7.83;78.67
64230;BME280;50547;49.498;0.092;2024-03-23T07:14:51;1015.41;;;7.84;78.31
64230;BME280;50547;49.498;0.092;2024-03-23T07:17:20;1015.34;;;7.81;78.27
64230;BME280;50547;49.498;0.092;2024-03-23T07:19:49;1015.26;;;7.84;79.19
64230;BME280;50547;49.498;0.092;2024-03-23T07:22:18;1015.20;;;7.89;78.42
64230;BME280;50547;49.498;0.092;2024-03-23T07:24:47;1015.08;;;8.01;77.94
64230;BME280;50547;49.498;0.092;2024-03-23T07:27:16;1015.32;;;8.02;76.40
64230;BME280;50547;49.498;0.092;2024-03-23T07:29:45;1015.39;;;8.05;76.31
64230;BME280;50547;49.498;0.092;2024-03-23T07:32:15;1015.37;;;8.12;75.79
64230;BME280;50547;49.498;0.092;2024-03-23T07:34:44;1015.22;;;8.15;75.34
64230;BME280;50547;49.498;0.092;2024-03-23T07:37:13;1015.26;;;8.26;76.10
64230;BME280;50547;49.498;0.092;2024-03-23T07:39:42;1015.32;;;8.22;75.67
64230;BME280;50547;49.498;0.092;2024-03-23T07:42:08;1015.28;;;8.25;74.68
64230;BME280;50547;49.498;0.092;2024-03-23T07:44:37;1014.98;;;8.29;76.61
64230;BME280;50547;49.498;0.092;2024-03-23T07:47:06;1015.55;;;8.00;78.82
64230;BME280;50547;49.498;0.092;2024-03-23T07:49:35;1015.37;;;7.43;81.31
64230;BME280;50547;49.498;0.092;2024-03-23T07:52:04;1015.51;;;7.45;80.38
64230;BME280;50547;49.498;0.092;2024-03-23T07:54:34;1015.34;;;7.90;78.72
64230;BME280;50547;49.498;0.092;2024-03-23T07:57:03;1015.20;;;7.88;76.35
64230;BME280;50547;49.498;0.092;2024-03-23T07:59:32;1015.32;;;8.22;75.53
64230;BME280;50547;49.498;0.092;2024-03-23T08:02:01;1015.37;;;8.34;75.84
64230;BME280;50547;49.498;0.092;2024-03-23T08:04:31;1015.43;;;8.23;76.05
64230;BME280;50547;49.498;0.092;2024-03-23T08:07:00;1015.39;;;8.27;76.63
64230;BME280;50547;49.498;0.092;2024-03-23T08:09:26;1015.47;;;8.35;76.51
64230;BME280;50547;49.498;0.092;2024-03-23T08:11:55;1015.55;;;8.22;75.73
64230;BME280;50547;49.498;0.092;2024-03-23T08:14:24;1015.39;;;8.41;75.57
64230;BME280;50547;49.498;0.092;2024-03-23T08:16:54;1015.57;;;8.45;74.80
64230;BME280;50547;49.498;0.092;2024-03-23T08:19:23;1015.41;;;8.57;74.20
64230;BME280;50547;49.498;0.092;2024-03-23T08:21:52;1015.37;;;8.54;73.92
64230;BME280;50547;49.498;0.092;2024-03-23T08:24:21;1015.36;;;8.47;74.87
64230;BME280;50547;49.498;0.092;2024-03-23T08:26:50;1015.30;;;8.44;73.70
64230;BME280;50547;49.498;0.092;2024-03-23T08:29:20;1015.37;;;8.32;74.03
64230;BME280;50547;49.498;0.092;2024-03-23T08:31:49;1015.14;;;8.47;74.24
64230;BME280;50547;49.498;0.092;2024-03-23T08:34:18;1015.30;;;8.52;74.94
64230;BME280;50547;49.498;0.092;2024-03-23T08:36:47;1015.59;;;8.49;75.36
64230;BME280;50547;49.498;0.092;2024-03-23T08:39:16;1015.36;;;8.42;74.61
64230;BME280;50547;49.498;0.092;2024-03-23T08:41:45;1015.45;;;8.58;75.88
64230;BME280;50547;49.498;0.092;2024-03-23T08:44:14;1015.24;;;8.48;74.25
64230;BME280;50547;49.498;0.092;2024-03-23T08:46:43;1015.37;;;8.51;74.23
64230;BME280;50547;49.498;0.092;2024-03-23T08:49:12;1015.36;;;8.53;73.96
64230;BME280;50547;49.498;0.092;2024-03-23T08:51:41;1015.45;;;8.61;72.92
64230;BME280;50547;49.498;0.092;2024-03-23T08:54:10;1015.51;;;8.86;73.17
64230;BME280;50547;49.498;0.092;2024-03-23T08:56:40;1015.41;;;8.80;73.01
64230;BME280;50547;49.498;0.092;2024-03-23T08:59:09;1015.30;;;8.74;72.40
64230;BME280;50547;49.498;0.092;2024-03-23T09:01:38;1015.51;;;8.66;73.93
64230;BME280;50547;49.498;0.092;2024-03-23T09:04:07;1015.51;;;8.72;74.06
64230;BME280;50547;49.498;0.092;2024-03-23T09:06:37;1015.41;;;8.71;73.93
64230;BME280;50547;49.498;0.092;2024-03-23T09:09:06;1015.49;;;8.93;74.02
64230;BME280;50547;49.498;0.092;2024-03-23T09:11:35;1015.36;;;8.90;74.03
64230;BME280;50547;49.498;0.092;2024-03-23T09:14:04;1015.53;;;8.90;74.59
64230;BME280;50547;49.498;0.092;2024-03-23T09:16:34;1015.34;;;8.98;75.11
64230;BME280;50547;49.498;0.092;2024-03-23T09:19:03;1015.55;;;8.92;72.24
64230;BME280;50547;49.498;0.092;2024-03-23T09:21:32;1015.41;;;8.83;73.39
64230;BME280;50547;49.498;0.092;2024-03-23T09:24:01;1015.37;;;8.83;73.33
64230;BME280;50547;49.498;0.092;2024-03-23T09:26:30;1015.59;;;8.54;75.75
64230;BME280;50547;49.498;0.092;2024-03-23T09:28:59;1015.57;;;8.22;77.36
64230;BME280;50547;49.498;0.092;2024-03-23T09:31:28;1015.55;;;8.10;78.59
64230;BME280;50547;49.498;0.092;2024-03-23T09:33:58;1015.49;;;8.01;78.13
64230;BME280;50547;49.498;0.092;2024-03-23T09:36:27;1015.57;;;7.82;79.67
64230;BME280;50547;49.498;0.092;2024-03-23T09:38:56;1015.53;;;8.11;78.49
64230;BME280;50547;49.498;0.092;2024-03-23T09:41:26;1015.41;;;8.50;75.79
64230;BME280;50547;49.498;0.092;2024-03-23T09:43:55;1015.45;;;8.65;76.22
64230;BME280;50547;49.498;0.092;2024-03-23T09:46:21;1015.49;;;8.79;72.05
64230;BME280;50547;49.498;0.092;2024-03-23T09:48:50;1015.32;;;8.85;71.69
64230;BME280;50547;49.498;0.092;2024-03-23T09:51:19;1015.49;;;9.01;71.51
64230;BME280;50547;49.498;0.092;2024-03-23T09:53:50;1015.32;;;9.01;72.25
64230;BME280;50547;49.498;0.092;2024-03-23T09:56:19;1015.20;;;8.93;71.90
64230;BME280;50547;49.498;0.092;2024-03-23T09:58:48;1015.36;;;8.94;71.82
64230;BME280;50547;49.498;0.092;2024-03-23T10:01:18;1015.26;;;8.97;71.41
64230;BME280;50547;49.498;0.092;2024-03-23T10:03:47;1015.43;;;9.09;72.36
64230;BME280;50547;49.498;0.092;2024-03-23T10:06:21;1015.37;;;9.16;72.86
64230;BME280;50547;49.498;0.092;2024-03-23T10:08:51;1015.34;;;9.07;73.21
64230;BME280;50547;49.498;0.092;2024-03-23T10:11:21;1015.28;;;9.12;73.62
64230;BME280;50547;49.498;0.092;2024-03-23T10:13:50;1015.34;;;9.13;72.91
64230;BME280;50547;49.498;0.092;2024-03-23T10:16:23;1015.34;;;9.05;75.31
64230;BME280;50547;49.498;0.092;2024-03-23T10:18:52;1015.28;;;9.06;76.18
64230;BME280;50547;49.498;0.092;2024-03-23T10:21:21;1015.06;;;9.16;75.55
64230;BME280;50547;49.498;0.092;2024-03-23T10:23:50;1015.20;;;9.07;75.62
64230;BME280;50547;49.498;0.092;2024-03-23T10:26:20;1015.12;;;8.93;76.11
64230;BME280;50547;49.498;0.092;2024-03-23T10:28:54;1014.98;;;9.11;75.76
64230;BME280;50547;49.498;0.092;2024-03-23T10:31:24;1015.02;;;9.04;75.95
64230;BME280;50547;49.498;0.092;2024-03-23T10:33:53;1015.04;;;9.31;74.10
64230;BME280;50547;49.498;0.092;2024-03-23T10:36:23;1015.26;;;9.51;73.53
64230;BME280;50547;49.498;0.092;2024-03-23T10:38:54;1015.06;;;9.49;74.43
64230;BME280;50547;49.498;0.092;2024-03-23T10:41:26;1015.08;;;9.11;75.59
64230;BME280;50547;49.498;0.092;2024-03-23T10:43:57;1015.18;;;9.32;75.59
64230;BME280;50547;49.498;0.092;2024-03-23T10:46:27;1015.04;;;9.51;74.00
64230;BME280;50547;49.498;0.092;2024-03-23T10:48:56;1014.94;;;9.46;73.58
64230;BME280;50547;49.498;0.092;2024-03-23T10:51:26;1014.89;;;9.42;71.14
64230;BME280;50547;49.498;0.092;2024-03-23T10:53:57;1014.83;;;9.40;71.34
64230;BME280;50547;49.498;0.092;2024-03-23T10:56:27;1014.98;;;9.38;71.31
64230;BME280;50547;49.498;0.092;2024-03-23T10:58:57;1015.00;;;9.43;71.59
64230;BME280;50547;49.498;0.092;2024-03-23T11:01:26;1014.94;;;9.48;70.40
64230;BME280;50547;49.498;0.092;2024-03-23T11:03:56;1014.65;;;9.62;69.96
64230;BME280;50547;49.498;0.092;2024-03-23T11:06:40;1014.96;;;9.64;69.69
64230;BME280;50547;49.498;0.092;2024-03-23T11:09:38;1015.04;;;9.56;71.33
64230;BME280;50547;49.498;0.092;2024-03-23T11:15:39;1014.92;;;8.95;79.95
64230;BME280;50547;49.498;0.092;2024-03-23T11:18:08;1014.85;;;8.24;80.24
64230;BME280;50547;49.498;0.092;2024-03-23T11:20:38;1014.81;;;8.23;78.58
64230;BME280;50547;49.498;0.092;2024-03-23T11:23:07;1014.79;;;8.77;78.02
64230;BME280;50547;49.498;0.092;2024-03-23T11:25:36;1014.69;;;9.10;74.70
64230;BME280;50547;49.498;0.092;2024-03-23T11:28:10;1015.00;;;9.08;74.85
64230;BME280;50547;49.498;0.092;2024-03-23T11:30:40;1014.83;;;9.03;73.36
64230;BME280;50547;49.498;0.092;2024-03-23T11:33:09;1014.59;;;9.16;72.05
64230;BME280;50547;49.498;0.092;2024-03-23T11:35:39;1014.67;;;9.34;71.46
64230;BME280;50547;49.498;0.092;2024-03-23T11:38:10;1014.67;;;9.42;72.43
64230;BME280;50547;49.498;0.092;2024-03-23T11:40:40;1014.63;;;9.60;69.71
64230;BME280;50547;49.498;0.092;2024-03-23T11:43:34;1014.61;;;9.83;68.62
64230;BME280;50547;49.498;0.092;2024-03-23T11:46:03;1014.47;;;9.66;69.30
64230;BME280;50547;49.498;0.092;2024-03-23T11:48:32;1014.43;;;9.87;68.45
64230;BME280;50547;49.498;0.092;2024-03-23T11:51:01;1014.45;;;9.96;68.52
64230;BME280;50547;49.498;0.092;2024-03-23T11:53:30;1014.36;;;9.73;69.42
64230;BME280;50547;49.498;0.092;2024-03-23T11:56:00;1014.30;;;9.77;70.17
64230;BME280;50547;49.498;0.092;2024-03-23T11:58:29;1014.28;;;9.71;69.01
64230;BME280;50547;49.498;0.092;2024-03-23T12:00:59;1014.24;;;9.71;70.10
64230;BME280;50547;49.498;0.092;2024-03-23T12:03:30;1014.34;;;9.96;70.45
64230;BME280;50547;49.498;0.092;2024-03-23T12:06:00;1014.24;;;9.83;71.62
64230;BME280;50547;49.498;0.092;2024-03-23T12:08:30;1014.34;;;9.50;74.11
64230;BME280;50547;49.498;0.092;2024-03-23T12:11:09;1014.28;;;8.93;77.06
64230;BME280;50547;49.498;0.092;2024-03-23T12:13:39;1014.14;;;8.58;78.80
64230;BME280;50547;49.498;0.092;2024-03-23T12:16:11;1014.04;;;8.70;77.66
64230;BME280;50547;49.498;0.092;2024-03-23T12:18:41;1014.01;;;8.53;77.61
64230;BME280;50547;49.498;0.092;2024-03-23T12:21:11;1013.95;;;8.26;79.61
64230;BME280;50547;49.498;0.092;2024-03-23T12:23:40;1013.97;;;8.27;79.00
64230;BME280;50547;49.498;0.092;2024-03-23T12:26:09;1013.93;;;8.46;78.53
64230;BME280;50547;49.498;0.092;2024-03-23T12:28:38;1013.77;;;8.79;78.16
64230;BME280;50547;49.498;0.092;2024-03-23T12:31:08;1013.69;;;9.09;77.76
64230;BME280;50547;49.498;0.092;2024-03-23T12:33:37;1013.65;;;9.55;75.93
64230;BME280;50547;49.498;0.092;2024-03-23T12:36:06;1013.50;;;9.60;75.19
64230;BME280;50547;49.498;0.092;2024-03-23T12:38:35;1013.42;;;9.95;72.22
64230;BME280;50547;49.498;0.092;2024-03-23T12:41:04;1013.50;;;10.15;71.85
64230;BME280;50547;49.498;0.092;2024-03-23T12:43:33;1013.18;;;10.11;71.30
64230;BME280;50547;49.498;0.092;2024-03-23T12:45:59;1013.12;;;10.13;71.92
64230;BME280;50547;49.498;0.092;2024-03-23T12:48:28;1013.02;;;10.28;72.46
64230;BME280;50547;49.498;0.092;2024-03-23T12:50:57;1013.02;;;10.44;72.62
64230;BME280;50547;49.498;0.092;2024-03-23T12:53:26;1013.16;;;9.91;71.35
64230;BME280;50547;49.498;0.092;2024-03-23T12:55:55;1012.71;;;9.85;70.98
64230;BME280;50547;49.498;0.092;2024-03-23T12:58:25;1013.00;;;9.91;71.71
64230;BME280;50547;49.498;0.092;2024-03-23T13:00:54;1012.78;;;9.91;72.51
64230;BME280;50547;49.498;0.092;2024-03-23T13:03:23;1012.90;;;9.80;72.32
64230;BME280;50547;49.498;0.092;2024-03-23T13:05:53;1012.90;;;9.75;72.25
64230;BME280;50547;49.498;0.092;2024-03-23T13:08:22;1012.86;;;9.78;71.96
64230;BME280;50547;49.498;0.092;2024-03-23T13:10:52;1012.57;;;9.90;72.81
64230;BME280;50547;49.498;0.092;2024-03-23T13:13:21;1012.45;;;9.79;70.41
64230;BME280;50547;49.498;0.092;2024-03-23T13:15:50;1012.69;;;9.69;70.39
64230;BME280;50547;49.498;0.092;2024-03-23T13:18:19;1012.61;;;9.67;73.58
64230;BME280;50547;49.498;0.092;2024-03-23T13:20:48;1012.61;;;9.30;76.74
64230;BME280;50547;49.498;0.092;2024-03-23T13:23:18;1012.30;;;9.29;76.86
64230;BME280;50547;49.498;0.092;2024-03-23T13:25:50;1012.35;;;9.44;75.16
64230;BME280;50547;49.498;0.092;2024-03-23T13:28:20;1012.59;;;9.63;74.65
64230;BME280;50547;49.498;0.092;2024-03-23T13:30:51;1012.20;;;9.67;74.39
64230;BME280;50547;49.498;0.092;2024-03-23T13:33:20;1012.00;;;9.58;74.82
64230;BME280;50547;49.498;0.092;2024-03-23T13:35:50;1012.26;;;9.58;75.70
64230;BME280;50547;49.498;0.092;2024-03-23T13:38:19;1012.41;;;9.55;77.04
64230;BME280;50547;49.498;0.092;2024-03-23T13:40:51;1012.02;;;9.04;78.36
64230;BME280;50547;49.498;0.092;2024-03-23T13:43:21;1012.14;;;8.66;79.88
64230;BME280;50547;49.498;0.092;2024-03-23T13:45:53;1012.22;;;8.72;80.14
64230;BME280;50547;49.498;0.092;2024-03-23T13:48:24;1012.28;;;8.67;80.36
64230;BME280;50547;49.498;0.092;2024-03-23T13:50:57;1012.35;;;8.77;79.65
64230;BME280;50547;49.498;0.092;2024-03-23T13:53:27;1012.67;;;8.77;79.24
64230;BME280;50547;49.498;0.092;2024-03-23T13:55:56;1012.28;;;8.74;79.56
64230;BME280;50547;49.498;0.092;2024-03-23T13:58:25;1012.10;;;8.72;78.36
64230;BME280;50547;49.498;0.092;2024-03-23T14:00:56;1012.10;;;8.73;77.74
64230;BME280;50547;49.498;0.092;2024-03-23T14:03:26;1012.26;;;8.57;77.34
64230;BME280;50547;49.498;0.092;2024-03-23T14:05:58;1012.47;;;8.64;77.73
64230;BME280;50547;49.498;0.092;2024-03-23T14:08:24;1012.12;;;8.77;77.73
64230;BME280;50547;49.498;0.092;2024-03-23T14:10:49;1012.10;;;8.76;76.65
64230;BME280;50547;49.498;0.092;2024-03-23T14:13:18;1012.24;;;8.63;77.94
64230;BME280;50547;49.498;0.092;2024-03-23T14:15:52;1012.00;;;8.42;78.97
64230;BME280;50547;49.498;0.092;2024-03-23T14:18:22;1012.12;;;8.28;78.89
64230;BME280;50547;49.498;0.092;2024-03-23T14:20:51;1011.96;;;8.18;80.31
64230;BME280;50547;49.498;0.092;2024-03-23T14:23:17;1012.08;;;8.27;80.44
64230;BME280;50547;49.498;0.092;2024-03-23T14:25:46;1011.90;;;8.39;80.02
64230;BME280;50547;49.498;0.092;2024-03-23T14:28:16;1011.85;;;8.44;79.81
64230;BME280;50547;49.498;0.092;2024-03-23T14:30:45;1011.88;;;8.48;79.77